sensor_id;sensor_type;location;lat;lon;timestamp;P1;durP1;ratioP1;P2;durP2;ratioP2
4895;SDS011;2463;49.948;8.472;2023-07-31T00:01:35;88.47;;;3.50;;
4895;SDS011;2463;49.948;8.472;2023-07-31T00:04:02;86.63;;;3.50;;
4895;SDS011;2463;49.948;8.472;2023-07-31T00:06:29;86.47;;;3.45;;
4895;SDS011;2463;49.948;8.472;2023-07-31T00:08:56;87.05;;;3.70;;
4895;SDS011;2463;49.948;8.472;2023-07-31T00:11:22;86.85;;;3.60;;
4895;SDS011;2463;49.948;8.472;2023-07-31T00:13:49;88.50;;;3.80;;
4895;SDS011;2463;49.948;8.472;2023-07-31T00:16:16;86.82;;;3.58;;
4895;SDS011;2463;49.948;8.472;2023-07-31T00:18:43;88.03;;;3.45;;
4895;SDS011;2463;49.948;8.472;2023-07-31T00:21:09;86.95;;;3.33;;
4895;SDS011;2463;49.948;8.472;2023-07-31T00:23:36;86.88;;;3.67;;
4895;SDS011;2463;49.948;8.472;2023-07-31T00:26:03;86.57;;;3.53;;
4895;SDS011;2463;49.948;8.472;2023-07-31T00:28:30;86.95;;;3.60;;
4895;SDS011;2463;49.948;8.472;2023-07-31T00:30:56;86.28;;;3.38;;
4895;SDS011;2463;49.948;8.472;2023-07-31T00:33:23;86.95;;;3.60;;
4895;SDS011;2463;49.948;8.472;2023-07-31T00:35:51;86.75;;;3.60;;
4895;SDS011;2463;49.948;8.472;2023-07-31T00:38:18;86.80;;;3.42;;
4895;SDS011;2463;49.948;8.472;2023-07-31T00:40:44;86.63;;;3.33;;
4895;SDS011;2463;49.948;8.472;2023-07-31T00:43:11;86.43;;;3.53;;
4895;SDS011;2463;49.948;8.472;2023-07-31T00:45:38;88.72;;;3.90;;
4895;SDS011;2463;49.948;8.472;2023-07-31T00:48:05;86.53;;;3.65;;
4895;SDS011;2463;49.948;8.472;2023-07-31T00:50:33;86.70;;;3.60;;
4895;SDS011;2463;49.948;8.472;2023-07-31T00:53:01;87.53;;;3.88;;
4895;SDS011;2463;49.948;8.472;2023-07-31T00:55:28;86.95;;;3.50;;
4895;SDS011;2463;49.948;8.472;2023-07-31T00:57:55;87.95;;;3.75;;
4895;SDS011;2463;49.948;8.472;2023-07-31T01:00:22;86.47;;;3.38;;
4895;SDS011;2463;49.948;8.472;2023-07-31T01:02:49;86.75;;;3.50;;
4895;SDS011;2463;49.948;8.472;2023-07-31T01:05:19;88.72;;;3.58;;
4895;SDS011;2463;49.948;8.472;2023-07-31T01:07:52;86.45;;;3.42;;
4895;SDS011;2463;49.948;8.472;2023-07-31T01:10:30;86.57;;;3.30;;
4895;SDS011;2463;49.948;8.472;2023-07-31T01:13:03;87.10;;;3.42;;
4895;SDS011;2463;49.948;8.472;2023-07-31T01:15:30;86.85;;;3.70;;
4895;SDS011;2463;49.948;8.472;2023-07-31T01:17:57;92.25;;;4.15;;
4895;SDS011;2463;49.948;8.472;2023-07-31T01:20:24;86.28;;;3.28;;
4895;SDS011;2463;49.948;8.472;2023-07-31T01:23:17;86.50;;;3.42;;
4895;SDS011;2463;49.948;8.472;2023-07-31T01:26:16;86.32;;;3.50;;
4895;SDS011;2463;49.948;8.472;2023-07-31T01:31:32;88.25;;;3.67;;
4895;SDS011;2463;49.948;8.472;2023-07-31T01:34:01;86.13;;;3.30;;
4895;SDS011;2463;49.948;8.472;2023-07-31T01:36:28;86.75;;;3.70;;
4895;SDS011;2463;49.948;8.472;2023-07-31T01:39:00;87.20;;;3.53;;
4895;SDS011;2463;49.948;8.472;2023-07-31T01:41:27;87.32;;;3.45;;
4895;SDS011;2463;49.948;8.472;2023-07-31T01:43:55;87.53;;;3.70;;
4895;SDS011;2463;49.948;8.472;2023-07-31T01:46:22;87.72;;;3.85;;
4895;SDS011;2463;49.948;8.472;2023-07-31T01:48:48;86.43;;;3.30;;
4895;SDS011;2463;49.948;8.472;2023-07-31T01:51:15;86.82;;;3.40;;
4895;SDS011;2463;49.948;8.472;2023-07-31T01:53:42;86.03;;;3.20;;
4895;SDS011;2463;49.948;8.472;2023-07-31T01:56:09;86.22;;;3.40;;
4895;SDS011;2463;49.948;8.472;2023-07-31T01:58:35;86.30;;;3.60;;
4895;SDS011;2463;49.948;8.472;2023-07-31T02:01:02;86.32;;;3.45;;
4895;SDS011;2463;49.948;8.472;2023-07-31T02:03:29;87.95;;;3.70;;
4895;SDS011;2463;49.948;8.472;2023-07-31T02:05:56;86.45;;;3.45;;
4895;SDS011;2463;49.948;8.472;2023-07-31T02:08:23;86.47;;;3.55;;
4895;SDS011;2463;49.948;8.472;2023-07-31T02:10:49;88.15;;;3.60;;
4895;SDS011;2463;49.948;8.472;2023-07-31T02:13:16;87.15;;;3.50;;
4895;SDS011;2463;49.948;8.472;2023-07-31T02:15:43;86.93;;;3.55;;
4895;SDS011;2463;49.948;8.472;2023-07-31T02:18:11;86.28;;;3.50;;
4895;SDS011;2463;49.948;8.472;2023-07-31T02:20:37;88.38;;;3.80;;
4895;SDS011;2463;49.948;8.472;2023-07-31T02:23:04;87.93;;;3.70;;
4895;SDS011;2463;49.948;8.472;2023-07-31T02:25:31;87.85;;;3.88;;
4895;SDS011;2463;49.948;8.472;2023-07-31T02:27:57;86.82;;;3.50;;
4895;SDS011;2463;49.948;8.472;2023-07-31T02:30:24;86.70;;;3.65;;
4895;SDS011;2463;49.948;8.472;2023-07-31T02:32:51;87.22;;;3.80;;
4895;SDS011;2463;49.948;8.472;2023-07-31T02:35:18;86.75;;;3.60;;
4895;SDS011;2463;49.948;8.472;2023-07-31T02:37:45;87.60;;;3.72;;
4895;SDS011;2463;49.948;8.472;2023-07-31T02:40:12;86.82;;;3.50;;
4895;SDS011;2463;49.948;8.472;2023-07-31T02:42:39;86.78;;;3.53;;
4895;SDS011;2463;49.948;8.472;2023-07-31T02:45:06;89.60;;;3.80;;
4895;SDS011;2463;49.948;8.472;2023-07-31T02:47:33;86.32;;;3.67;;
4895;SDS011;2463;49.948;8.472;2023-07-31T02:50:00;86.63;;;3.50;;
4895;SDS011;2463;49.948;8.472;2023-07-31T02:52:30;86.63;;;3.65;;
4895;SDS011;2463;49.948;8.472;2023-07-31T02:54:57;87.15;;;3.47;;
4895;SDS011;2463;49.948;8.472;2023-07-31T02:57:24;91.15;;;3.58;;
4895;SDS011;2463;49.948;8.472;2023-07-31T02:59:51;87.05;;;3.72;;
4895;SDS011;2463;49.948;8.472;2023-07-31T03:02:17;88.03;;;3.53;;
4895;SDS011;2463;49.948;8.472;2023-07-31T03:04:44;86.93;;;3.60;;
4895;SDS011;2463;49.948;8.472;2023-07-31T03:07:11;87.28;;;3.45;;
4895;SDS011;2463;49.948;8.472;2023-07-31T03:09:38;87.93;;;3.50;;
4895;SDS011;2463;49.948;8.472;2023-07-31T03:12:04;86.75;;;3.60;;
4895;SDS011;2463;49.948;8.472;2023-07-31T03:14:31;86.65;;;3.33;;
4895;SDS011;2463;49.948;8.472;2023-07-31T03:16:59;87.60;;;3.70;;
4895;SDS011;2463;49.948;8.472;2023-07-31T03:19:25;86.63;;;3.42;;
4895;SDS011;2463;49.948;8.472;2023-07-31T03:21:52;86.85;;;3.40;;
4895;SDS011;2463;49.948;8.472;2023-07-31T03:24:19;87.65;;;3.70;;
4895;SDS011;2463;49.948;8.472;2023-07-31T03:26:46;86.53;;;3.40;;
4895;SDS011;2463;49.948;8.472;2023-07-31T03:29:12;87.05;;;3.65;;
4895;SDS011;2463;49.948;8.472;2023-07-31T03:31:39;86.97;;;3.60;;
4895;SDS011;2463;49.948;8.472;2023-07-31T03:34:06;87.53;;;3.78;;
4895;SDS011;2463;49.948;8.472;2023-07-31T03:36:32;87.05;;;3.60;;
4895;SDS011;2463;49.948;8.472;2023-07-31T03:38:59;87.63;;;3.72;;
4895;SDS011;2463;49.948;8.472;2023-07-31T03:41:26;87.55;;;3.95;;
4895;SDS011;2463;49.948;8.472;2023-07-31T03:43:52;87.30;;;3.65;;
4895;SDS011;2463;49.948;8.472;2023-07-31T03:46:22;87.32;;;3.90;;
4895;SDS011;2463;49.948;8.472;2023-07-31T03:48:50;88.85;;;3.95;;
4895;SDS011;2463;49.948;8.472;2023-07-31T03:51:17;87.35;;;3.80;;
4895;SDS011;2463;49.948;8.472;2023-07-31T03:53:44;86.50;;;3.50;;
4895;SDS011;2463;49.948;8.472;2023-07-31T03:56:11;86.72;;;3.50;;
4895;SDS011;2463;49.948;8.472;2023-07-31T03:58:38;87.18;;;3.65;;
4895;SDS011;2463;49.948;8.472;2023-07-31T04:01:04;87.20;;;4.03;;
4895;SDS011;2463;49.948;8.472;2023-07-31T04:03:32;87.88;;;3.80;;
4895;SDS011;2463;49.948;8.472;2023-07-31T04:05:59;89.00;;;3.72;;
4895;SDS011;2463;49.948;8.472;2023-07-31T04:08:25;88.57;;;4.05;;
4895;SDS011;2463;49.948;8.472;2023-07-31T04:10:52;87.75;;;3.95;;
4895;SDS011;2463;49.948;8.472;2023-07-31T04:13:19;86.95;;;3.70;;
4895;SDS011;2463;49.948;8.472;2023-07-31T04:15:49;86.68;;;3.50;;
4895;SDS011;2463;49.948;8.472;2023-07-31T04:18:20;87.72;;;3.63;;
4895;SDS011;2463;49.948;8.472;2023-07-31T04:20:47;88.03;;;4.10;;
4895;SDS011;2463;49.948;8.472;2023-07-31T04:23:13;87.13;;;3.70;;
4895;SDS011;2463;49.948;8.472;2023-07-31T04:25:41;87.45;;;3.85;;
4895;SDS011;2463;49.948;8.472;2023-07-31T04:28:07;87.78;;;4.20;;
4895;SDS011;2463;49.948;8.472;2023-07-31T04:30:34;86.70;;;3.30;;
4895;SDS011;2463;49.948;8.472;2023-07-31T04:33:02;89.22;;;3.88;;
4895;SDS011;2463;49.948;8.472;2023-07-31T04:35:29;87.35;;;3.78;;
4895;SDS011;2463;49.948;8.472;2023-07-31T04:37:56;88.63;;;4.30;;
4895;SDS011;2463;49.948;8.472;2023-07-31T04:40:23;87.22;;;3.83;;
4895;SDS011;2463;49.948;8.472;2023-07-31T04:42:49;87.82;;;3.70;;
4895;SDS011;2463;49.948;8.472;2023-07-31T04:45:16;88.68;;;3.67;;
4895;SDS011;2463;49.948;8.472;2023-07-31T04:47:43;87.22;;;3.88;;
4895;SDS011;2463;49.948;8.472;2023-07-31T04:50:10;87.40;;;3.80;;
4895;SDS011;2463;49.948;8.472;2023-07-31T04:52:37;88.40;;;3.78;;
4895;SDS011;2463;49.948;8.472;2023-07-31T04:55:04;88.32;;;3.80;;
4895;SDS011;2463;49.948;8.472;2023-07-31T04:57:30;89.57;;;3.95;;
4895;SDS011;2463;49.948;8.472;2023-07-31T04:59:57;87.13;;;3.55;;
4895;SDS011;2463;49.948;8.472;2023-07-31T05:02:24;87.78;;;3.85;;
4895;SDS011;2463;49.948;8.472;2023-07-31T05:04:51;90.05;;;4.35;;
4895;SDS011;2463;49.948;8.472;2023-07-31T05:07:17;87.35;;;3.70;;
4895;SDS011;2463;49.948;8.472;2023-07-31T05:09:44;88.50;;;3.80;;
4895;SDS011;2463;49.948;8.472;2023-07-31T05:12:11;86.63;;;3.60;;
4895;SDS011;2463;49.948;8.472;2023-07-31T05:14:38;87.22;;;3.90;;
4895;SDS011;2463;49.948;8.472;2023-07-31T05:17:04;89.35;;;3.85;;
4895;SDS011;2463;49.948;8.472;2023-07-31T05:19:31;86.80;;;3.58;;
4895;SDS011;2463;49.948;8.472;2023-07-31T05:21:58;86.57;;;3.50;;
4895;SDS011;2463;49.948;8.472;2023-07-31T05:24:25;87.72;;;3.90;;
4895;SDS011;2463;49.948;8.472;2023-07-31T05:26:52;87.53;;;3.70;;
4895;SDS011;2463;49.948;8.472;2023-07-31T05:29:18;88.03;;;3.75;;
4895;SDS011;2463;49.948;8.472;2023-07-31T05:31:46;88.28;;;4.22;;
4895;SDS011;2463;49.948;8.472;2023-07-31T05:34:13;87.35;;;3.50;;
4895;SDS011;2463;49.948;8.472;2023-07-31T05:36:39;87.22;;;3.85;;
4895;SDS011;2463;49.948;8.472;2023-07-31T05:39:07;88.22;;;3.90;;
4895;SDS011;2463;49.948;8.472;2023-07-31T05:41:35;87.22;;;3.90;;
4895;SDS011;2463;49.948;8.472;2023-07-31T05:44:02;86.93;;;3.60;;
4895;SDS011;2463;49.948;8.472;2023-07-31T05:46:29;87.15;;;3.90;;
4895;SDS011;2463;49.948;8.472;2023-07-31T05:48:57;87.03;;;3.65;;
4895;SDS011;2463;49.948;8.472;2023-07-31T05:51:27;86.78;;;3.85;;
4895;SDS011;2463;49.948;8.472;2023-07-31T05:53:54;88.68;;;4.00;;
4895;SDS011;2463;49.948;8.472;2023-07-31T05:56:21;87.75;;;4.00;;
4895;SDS011;2463;49.948;8.472;2023-07-31T05:58:47;86.82;;;3.50;;
4895;SDS011;2463;49.948;8.472;2023-07-31T06:01:16;87.03;;;3.80;;
4895;SDS011;2463;49.948;8.472;2023-07-31T06:03:43;88.07;;;3.80;;
4895;SDS011;2463;49.948;8.472;2023-07-31T06:06:11;87.32;;;3.70;;
4895;SDS011;2463;49.948;8.472;2023-07-31T06:08:37;88.43;;;3.63;;
4895;SDS011;2463;49.948;8.472;2023-07-31T06:11:04;87.00;;;3.75;;
4895;SDS011;2463;49.948;8.472;2023-07-31T06:13:31;87.65;;;3.67;;
4895;SDS011;2463;49.948;8.472;2023-07-31T06:15:58;86.95;;;3.80;;
4895;SDS011;2463;49.948;8.472;2023-07-31T06:18:26;87.53;;;3.60;;
4895;SDS011;2463;49.948;8.472;2023-07-31T06:20:52;86.65;;;3.40;;
4895;SDS011;2463;49.948;8.472;2023-07-31T06:23:20;86.85;;;3.42;;
4895;SDS011;2463;49.948;8.472;2023-07-31T06:25:47;87.10;;;3.90;;
4895;SDS011;2463;49.948;8.472;2023-07-31T06:28:14;87.40;;;4.03;;
4895;SDS011;2463;49.948;8.472;2023-07-31T06:30:41;88.00;;;3.92;;
4895;SDS011;2463;49.948;8.472;2023-07-31T06:33:08;87.97;;;3.58;;
4895;SDS011;2463;49.948;8.472;2023-07-31T06:35:35;86.65;;;3.50;;
4895;SDS011;2463;49.948;8.472;2023-07-31T06:38:02;85.97;;;3.38;;
4895;SDS011;2463;49.948;8.472;2023-07-31T06:40:29;88.50;;;3.92;;
4895;SDS011;2463;49.948;8.472;2023-07-31T06:42:56;86.47;;;3.58;;
4895;SDS011;2463;49.948;8.472;2023-07-31T06:45:23;85.85;;;3.40;;
4895;SDS011;2463;49.948;8.472;2023-07-31T06:47:50;85.18;;;3.35;;
4895;SDS011;2463;49.948;8.472;2023-07-31T06:50:17;86.22;;;3.58;;
4895;SDS011;2463;49.948;8.472;2023-07-31T06:52:43;86.35;;;3.60;;
4895;SDS011;2463;49.948;8.472;2023-07-31T06:55:17;86.15;;;3.40;;
4895;SDS011;2463;49.948;8.472;2023-07-31T06:57:46;85.47;;;3.28;;
4895;SDS011;2463;49.948;8.472;2023-07-31T07:00:14;85.15;;;3.50;;
4895;SDS011;2463;49.948;8.472;2023-07-31T07:02:41;86.47;;;4.00;;
4895;SDS011;2463;49.948;8.472;2023-07-31T07:05:08;85.68;;;3.45;;
4895;SDS011;2463;49.948;8.472;2023-07-31T07:07:35;87.25;;;3.55;;
4895;SDS011;2463;49.948;8.472;2023-07-31T07:10:02;85.45;;;3.20;;
4895;SDS011;2463;49.948;8.472;2023-07-31T07:12:30;86.10;;;3.78;;
4895;SDS011;2463;49.948;8.472;2023-07-31T07:14:57;85.85;;;3.50;;
4895;SDS011;2463;49.948;8.472;2023-07-31T07:17:25;85.53;;;3.40;;
4895;SDS011;2463;49.948;8.472;2023-07-31T07:19:53;85.75;;;3.95;;
4895;SDS011;2463;49.948;8.472;2023-07-31T07:22:21;86.03;;;3.55;;
4895;SDS011;2463;49.948;8.472;2023-07-31T07:24:48;86.68;;;3.80;;
4895;SDS011;2463;49.948;8.472;2023-07-31T07:27:14;87.63;;;4.28;;
4895;SDS011;2463;49.948;8.472;2023-07-31T07:29:41;86.32;;;3.50;;
4895;SDS011;2463;49.948;8.472;2023-07-31T07:32:08;87.50;;;3.70;;
4895;SDS011;2463;49.948;8.472;2023-07-31T07:34:35;85.65;;;3.28;;
4895;SDS011;2463;49.948;8.472;2023-07-31T07:37:01;85.32;;;3.20;;
4895;SDS011;2463;49.948;8.472;2023-07-31T07:39:28;85.75;;;3.53;;
4895;SDS011;2463;49.948;8.472;2023-07-31T07:41:55;87.00;;;3.65;;
4895;SDS011;2463;49.948;8.472;2023-07-31T07:44:21;85.78;;;3.50;;
4895;SDS011;2463;49.948;8.472;2023-07-31T07:46:48;85.63;;;3.45;;
4895;SDS011;2463;49.948;8.472;2023-07-31T07:49:15;85.55;;;3.22;;
4895;SDS011;2463;49.948;8.472;2023-07-31T07:51:42;86.28;;;3.85;;
4895;SDS011;2463;49.948;8.472;2023-07-31T07:54:08;86.00;;;3.40;;
4895;SDS011;2463;49.948;8.472;2023-07-31T07:56:35;85.55;;;3.40;;
4895;SDS011;2463;49.948;8.472;2023-07-31T07:59:03;84.78;;;3.13;;
4895;SDS011;2463;49.948;8.472;2023-07-31T08:01:30;85.93;;;3.08;;
4895;SDS011;2463;49.948;8.472;2023-07-31T08:03:57;85.53;;;3.25;;
4895;SDS011;2463;49.948;8.472;2023-07-31T08:06:24;84.78;;;3.30;;
4895;SDS011;2463;49.948;8.472;2023-07-31T08:08:51;87.40;;;3.35;;
4895;SDS011;2463;49.948;8.472;2023-07-31T08:11:17;85.15;;;3.50;;
4895;SDS011;2463;49.948;8.472;2023-07-31T08:13:44;86.03;;;3.60;;
4895;SDS011;2463;49.948;8.472;2023-07-31T08:16:11;85.10;;;3.58;;
4895;SDS011;2463;49.948;8.472;2023-07-31T08:18:38;85.20;;;3.53;;
4895;SDS011;2463;49.948;8.472;2023-07-31T08:21:07;85.05;;;3.60;;
4895;SDS011;2463;49.948;8.472;2023-07-31T08:23:33;84.75;;;3.00;;
4895;SDS011;2463;49.948;8.472;2023-07-31T08:26:00;84.80;;;3.40;;
4895;SDS011;2463;49.948;8.472;2023-07-31T08:28:27;84.63;;;3.15;;
4895;SDS011;2463;49.948;8.472;2023-07-31T08:30:53;84.40;;;3.20;;
4895;SDS011;2463;49.948;8.472;2023-07-31T08:33:20;83.85;;;3.10;;
4895;SDS011;2463;49.948;8.472;2023-07-31T08:35:47;84.20;;;3.20;;
4895;SDS011;2463;49.948;8.472;2023-07-31T08:38:14;83.63;;;3.08;;
4895;SDS011;2463;49.948;8.472;2023-07-31T08:40:41;84.03;;;3.15;;
4895;SDS011;2463;49.948;8.472;2023-07-31T08:43:08;85.07;;;3.30;;
4895;SDS011;2463;49.948;8.472;2023-07-31T08:45:35;84.65;;;3.33;;
4895;SDS011;2463;49.948;8.472;2023-07-31T08:48:02;84.20;;;3.20;;
4895;SDS011;2463;49.948;8.472;2023-07-31T08:50:29;83.67;;;2.90;;
4895;SDS011;2463;49.948;8.472;2023-07-31T08:52:56;83.35;;;3.20;;
4895;SDS011;2463;49.948;8.472;2023-07-31T08:55:24;82.17;;;3.07;;
4895;SDS011;2463;49.948;8.472;2023-07-31T08:57:51;83.27;;;2.90;;
4895;SDS011;2463;49.948;8.472;2023-07-31T09:00:19;84.68;;;3.25;;
4895;SDS011;2463;49.948;8.472;2023-07-31T09:05:17;83.37;;;2.90;;
4895;SDS011;2463;49.948;8.472;2023-07-31T09:07:45;83.30;;;3.33;;
4895;SDS011;2463;49.948;8.472;2023-07-31T09:10:13;84.10;;;3.38;;
4895;SDS011;2463;49.948;8.472;2023-07-31T09:12:40;83.07;;;3.30;;
4895;SDS011;2463;49.948;8.472;2023-07-31T09:15:07;83.30;;;3.20;;
4895;SDS011;2463;49.948;8.472;2023-07-31T09:17:46;84.35;;;3.40;;
4895;SDS011;2463;49.948;8.472;2023-07-31T09:22:42;85.20;;;3.28;;
4895;SDS011;2463;49.948;8.472;2023-07-31T09:25:20;83.43;;;3.05;;
4895;SDS011;2463;49.948;8.472;2023-07-31T09:27:49;83.22;;;3.20;;
4895;SDS011;2463;49.948;8.472;2023-07-31T09:30:32;84.65;;;3.58;;
4895;SDS011;2463;49.948;8.472;2023-07-31T09:33:17;85.70;;;3.60;;
4895;SDS011;2463;49.948;8.472;2023-07-31T09:35:44;84.82;;;3.60;;
4895;SDS011;2463;49.948;8.472;2023-07-31T09:38:14;83.18;;;3.35;;
4895;SDS011;2463;49.948;8.472;2023-07-31T09:40:43;82.87;;;2.73;;
4895;SDS011;2463;49.948;8.472;2023-07-31T09:43:16;85.03;;;3.20;;
4895;SDS011;2463;49.948;8.472;2023-07-31T09:45:44;84.28;;;3.20;;
4895;SDS011;2463;49.948;8.472;2023-07-31T09:48:13;84.97;;;3.45;;
4895;SDS011;2463;49.948;8.472;2023-07-31T09:50:44;83.67;;;3.20;;
4895;SDS011;2463;49.948;8.472;2023-07-31T09:53:13;84.25;;;3.50;;
4895;SDS011;2463;49.948;8.472;2023-07-31T09:55:40;83.32;;;3.10;;
4895;SDS011;2463;49.948;8.472;2023-07-31T09:58:09;82.63;;;3.40;;
4895;SDS011;2463;49.948;8.472;2023-07-31T10:00:37;83.60;;;3.50;;
4895;SDS011;2463;49.948;8.472;2023-07-31T10:03:05;84.63;;;3.30;;
4895;SDS011;2463;49.948;8.472;2023-07-31T10:05:37;84.10;;;3.20;;
4895;SDS011;2463;49.948;8.472;2023-07-31T10:08:17;82.45;;;2.97;;
4895;SDS011;2463;49.948;8.472;2023-07-31T10:10:46;88.43;;;3.33;;
4895;SDS011;2463;49.948;8.472;2023-07-31T10:13:13;83.25;;;3.10;;
4895;SDS011;2463;49.948;8.472;2023-07-31T10:15:41;84.28;;;3.10;;
4895;SDS011;2463;49.948;8.472;2023-07-31T10:18:10;83.65;;;3.45;;
4895;SDS011;2463;49.948;8.472;2023-07-31T10:20:37;83.75;;;3.50;;
4895;SDS011;2463;49.948;8.472;2023-07-31T10:23:04;83.35;;;2.95;;
4895;SDS011;2463;49.948;8.472;2023-07-31T10:25:32;85.43;;;3.25;;
4895;SDS011;2463;49.948;8.472;2023-07-31T10:28:00;83.28;;;3.25;;
4895;SDS011;2463;49.948;8.472;2023-07-31T10:30:28;85.25;;;2.90;;
4895;SDS011;2463;49.948;8.472;2023-07-31T10:32:58;84.47;;;3.28;;
4895;SDS011;2463;49.948;8.472;2023-07-31T10:35:27;82.82;;;3.15;;
4895;SDS011;2463;49.948;8.472;2023-07-31T10:37:54;82.85;;;3.08;;
4895;SDS011;2463;49.948;8.472;2023-07-31T10:40:25;82.85;;;3.20;;
4895;SDS011;2463;49.948;8.472;2023-07-31T10:42:53;82.40;;;2.90;;
4895;SDS011;2463;49.948;8.472;2023-07-31T10:45:25;82.22;;;3.03;;
4895;SDS011;2463;49.948;8.472;2023-07-31T10:48:00;82.97;;;3.57;;
4895;SDS011;2463;49.948;8.472;2023-07-31T10:50:29;82.03;;;2.93;;
4895;SDS011;2463;49.948;8.472;2023-07-31T10:52:59;81.73;;;3.20;;
4895;SDS011;2463;49.948;8.472;2023-07-31T10:55:28;81.27;;;2.80;;
4895;SDS011;2463;49.948;8.472;2023-07-31T10:58:07;82.90;;;3.27;;
4895;SDS011;2463;49.948;8.472;2023-07-31T11:00:39;82.00;;;2.87;;
4895;SDS011;2463;49.948;8.472;2023-07-31T11:05:42;83.57;;;3.13;;
4895;SDS011;2463;49.948;8.472;2023-07-31T11:08:26;82.35;;;3.17;;
4895;SDS011;2463;49.948;8.472;2023-07-31T11:13:50;84.47;;;3.38;;
4895;SDS011;2463;49.948;8.472;2023-07-31T11:16:22;83.47;;;3.40;;
4895;SDS011;2463;49.948;8.472;2023-07-31T11:18:51;84.77;;;3.50;;
4895;SDS011;2463;49.948;8.472;2023-07-31T11:21:22;83.70;;;3.23;;
4895;SDS011;2463;49.948;8.472;2023-07-31T11:23:53;82.40;;;2.92;;
4895;SDS011;2463;49.948;8.472;2023-07-31T11:26:25;83.77;;;3.50;;
4895;SDS011;2463;49.948;8.472;2023-07-31T11:28:53;83.77;;;2.90;;
4895;SDS011;2463;49.948;8.472;2023-07-31T11:31:20;83.57;;;3.13;;
4895;SDS011;2463;49.948;8.472;2023-07-31T11:33:48;83.07;;;3.10;;
4895;SDS011;2463;49.948;8.472;2023-07-31T11:36:15;82.77;;;3.13;;
4895;SDS011;2463;49.948;8.472;2023-07-31T11:38:46;83.13;;;3.10;;
4895;SDS011;2463;49.948;8.472;2023-07-31T11:41:14;84.68;;;3.03;;
4895;SDS011;2463;49.948;8.472;2023-07-31T11:43:42;82.60;;;3.17;;
4895;SDS011;2463;49.948;8.472;2023-07-31T11:46:09;84.13;;;3.10;;
4895;SDS011;2463;49.948;8.472;2023-07-31T11:48:36;82.60;;;3.17;;
4895;SDS011;2463;49.948;8.472;2023-07-31T11:51:04;82.22;;;2.95;;
4895;SDS011;2463;49.948;8.472;2023-07-31T11:56:14;83.20;;;3.20;;
4895;SDS011;2463;49.948;8.472;2023-07-31T11:58:48;83.68;;;3.10;;
4895;SDS011;2463;49.948;8.472;2023-07-31T12:01:19;83.70;;;2.97;;
4895;SDS011;2463;49.948;8.472;2023-07-31T12:03:50;83.25;;;3.20;;
4895;SDS011;2463;49.948;8.472;2023-07-31T12:06:18;82.80;;;2.90;;
4895;SDS011;2463;49.948;8.472;2023-07-31T12:08:47;83.57;;;3.47;;
4895;SDS011;2463;49.948;8.472;2023-07-31T12:11:15;83.40;;;3.00;;
4895;SDS011;2463;49.948;8.472;2023-07-31T12:13:44;82.80;;;3.10;;
4895;SDS011;2463;49.948;8.472;2023-07-31T12:16:10;84.07;;;2.97;;
4895;SDS011;2463;49.948;8.472;2023-07-31T12:18:38;83.40;;;2.90;;
4895;SDS011;2463;49.948;8.472;2023-07-31T12:21:06;82.60;;;3.00;;
4895;SDS011;2463;49.948;8.472;2023-07-31T12:23:35;83.20;;;3.03;;
4895;SDS011;2463;49.948;8.472;2023-07-31T12:31:14;83.30;;;3.17;;
4895;SDS011;2463;49.948;8.472;2023-07-31T12:33:46;85.03;;;3.00;;
4895;SDS011;2463;49.948;8.472;2023-07-31T12:36:16;83.78;;;3.10;;
4895;SDS011;2463;49.948;8.472;2023-07-31T12:38:44;84.22;;;3.45;;
4895;SDS011;2463;49.948;8.472;2023-07-31T12:41:11;83.15;;;2.75;;
4895;SDS011;2463;49.948;8.472;2023-07-31T12:43:39;82.18;;;3.20;;
4895;SDS011;2463;49.948;8.472;2023-07-31T12:46:07;85.03;;;3.50;;
4895;SDS011;2463;49.948;8.472;2023-07-31T12:48:35;84.90;;;4.10;;
4895;SDS011;2463;49.948;8.472;2023-07-31T12:51:03;82.85;;;3.10;;
4895;SDS011;2463;49.948;8.472;2023-07-31T12:53:30;83.10;;;3.10;;
4895;SDS011;2463;49.948;8.472;2023-07-31T12:55:57;82.97;;;3.20;;
4895;SDS011;2463;49.948;8.472;2023-07-31T12:58:23;83.30;;;3.00;;
4895;SDS011;2463;49.948;8.472;2023-07-31T13:00:50;83.72;;;3.00;;
4895;SDS011;2463;49.948;8.472;2023-07-31T13:03:17;84.37;;;3.20;;
4895;SDS011;2463;49.948;8.472;2023-07-31T13:05:44;83.40;;;2.87;;
4895;SDS011;2463;49.948;8.472;2023-07-31T13:08:11;84.53;;;3.17;;
4895;SDS011;2463;49.948;8.472;2023-07-31T13:10:38;82.50;;;2.83;;
4895;SDS011;2463;49.948;8.472;2023-07-31T13:13:05;82.97;;;3.00;;
4895;SDS011;2463;49.948;8.472;2023-07-31T13:15:32;83.00;;;3.00;;
4895;SDS011;2463;49.948;8.472;2023-07-31T13:17:58;83.37;;;2.90;;
4895;SDS011;2463;49.948;8.472;2023-07-31T13:20:26;83.10;;;3.20;;
4895;SDS011;2463;49.948;8.472;2023-07-31T13:22:52;82.63;;;2.90;;
4895;SDS011;2463;49.948;8.472;2023-07-31T13:25:19;83.47;;;3.60;;
4895;SDS011;2463;49.948;8.472;2023-07-31T13:27:46;84.20;;;3.37;;
4895;SDS011;2463;49.948;8.472;2023-07-31T13:30:13;83.60;;;3.23;;
4895;SDS011;2463;49.948;8.472;2023-07-31T13:32:39;83.30;;;3.07;;
4895;SDS011;2463;49.948;8.472;2023-07-31T13:35:06;83.63;;;3.05;;
4895;SDS011;2463;49.948;8.472;2023-07-31T13:37:34;82.87;;;3.10;;
4895;SDS011;2463;49.948;8.472;2023-07-31T13:40:01;83.30;;;2.87;;
4895;SDS011;2463;49.948;8.472;2023-07-31T13:42:31;82.70;;;2.87;;
4895;SDS011;2463;49.948;8.472;2023-07-31T13:44:58;83.47;;;3.00;;
4895;SDS011;2463;49.948;8.472;2023-07-31T13:47:25;83.20;;;3.30;;
4895;SDS011;2463;49.948;8.472;2023-07-31T13:49:51;83.10;;;3.17;;
4895;SDS011;2463;49.948;8.472;2023-07-31T13:52:18;83.30;;;3.23;;
4895;SDS011;2463;49.948;8.472;2023-07-31T13:54:45;83.88;;;3.53;;
4895;SDS011;2463;49.948;8.472;2023-07-31T13:57:12;83.17;;;3.40;;
4895;SDS011;2463;49.948;8.472;2023-07-31T13:59:38;83.93;;;3.40;;
4895;SDS011;2463;49.948;8.472;2023-07-31T14:02:05;83.40;;;3.00;;
4895;SDS011;2463;49.948;8.472;2023-07-31T14:04:32;84.57;;;3.00;;
4895;SDS011;2463;49.948;8.472;2023-07-31T14:06:59;83.97;;;3.30;;
4895;SDS011;2463;49.948;8.472;2023-07-31T14:09:25;84.50;;;3.40;;
4895;SDS011;2463;49.948;8.472;2023-07-31T14:11:54;83.90;;;3.20;;
4895;SDS011;2463;49.948;8.472;2023-07-31T14:14:21;83.07;;;3.20;;
4895;SDS011;2463;49.948;8.472;2023-07-31T14:16:48;83.77;;;2.90;;
4895;SDS011;2463;49.948;8.472;2023-07-31T14:19:15;84.30;;;3.67;;
4895;SDS011;2463;49.948;8.472;2023-07-31T14:21:41;85.20;;;3.10;;
4895;SDS011;2463;49.948;8.472;2023-07-31T14:24:14;83.53;;;3.00;;
4895;SDS011;2463;49.948;8.472;2023-07-31T14:26:40;84.93;;;3.60;;
4895;SDS011;2463;49.948;8.472;2023-07-31T14:29:08;84.57;;;3.23;;
4895;SDS011;2463;49.948;8.472;2023-07-31T14:31:35;82.87;;;2.90;;
4895;SDS011;2463;49.948;8.472;2023-07-31T14:34:02;85.10;;;3.20;;
4895;SDS011;2463;49.948;8.472;2023-07-31T14:36:28;84.55;;;3.20;;
4895;SDS011;2463;49.948;8.472;2023-07-31T14:38:55;83.82;;;3.40;;
4895;SDS011;2463;49.948;8.472;2023-07-31T14:41:22;83.93;;;2.92;;
4895;SDS011;2463;49.948;8.472;2023-07-31T14:43:49;83.60;;;2.87;;
4895;SDS011;2463;49.948;8.472;2023-07-31T14:46:15;85.63;;;3.30;;
4895;SDS011;2463;49.948;8.472;2023-07-31T14:48:42;85.20;;;3.20;;
4895;SDS011;2463;49.948;8.472;2023-07-31T14:51:09;86.60;;;3.33;;
4895;SDS011;2463;49.948;8.472;2023-07-31T14:53:35;83.57;;;2.90;;
4895;SDS011;2463;49.948;8.472;2023-07-31T14:56:02;83.90;;;3.10;;
4895;SDS011;2463;49.948;8.472;2023-07-31T14:58:29;83.80;;;3.10;;
4895;SDS011;2463;49.948;8.472;2023-07-31T15:00:56;83.70;;;3.00;;
4895;SDS011;2463;49.948;8.472;2023-07-31T15:03:22;84.00;;;3.20;;
4895;SDS011;2463;49.948;8.472;2023-07-31T15:05:51;82.78;;;3.05;;
4895;SDS011;2463;49.948;8.472;2023-07-31T15:08:18;84.05;;;3.25;;
4895;SDS011;2463;49.948;8.472;2023-07-31T15:10:45;82.57;;;3.07;;
4895;SDS011;2463;49.948;8.472;2023-07-31T15:13:12;83.03;;;3.13;;
4895;SDS011;2463;49.948;8.472;2023-07-31T15:15:39;82.68;;;3.05;;
4895;SDS011;2463;49.948;8.472;2023-07-31T15:18:05;82.72;;;3.00;;
4895;SDS011;2463;49.948;8.472;2023-07-31T15:20:32;82.72;;;2.70;;
4895;SDS011;2463;49.948;8.472;2023-07-31T15:23:00;84.43;;;3.08;;
4895;SDS011;2463;49.948;8.472;2023-07-31T15:25:27;83.82;;;3.08;;